sensor_id;sensor_type;location;lat;lon;timestamp;P1;durP1;ratioP1;P2;durP2;ratioP2
43345;SDS011;28937;51.160;4.146;2023-03-01T00:01:25;9.57;;;6.78;;
43345;SDS011;28937;51.160;4.146;2023-03-01T00:03:55;8.15;;;7.32;;
43345;SDS011;28937;51.160;4.146;2023-03-01T00:06:21;7.40;;;6.40;;
43345;SDS011;28937;51.160;4.146;2023-03-01T00:08:47;9.80;;;7.32;;
43345;SDS011;28937;51.160;4.146;2023-03-01T00:13:39;8.05;;;6.30;;
43345;SDS011;28937;51.160;4.146;2023-03-01T00:16:06;9.43;;;6.40;;
43345;SDS011;28937;51.160;4.146;2023-03-01T00:18:33;7.75;;;6.15;;
43345;SDS011;28937;51.160;4.146;2023-03-01T00:20:59;8.60;;;5.78;;
43345;SDS011;28937;51.160;4.146;2023-03-01T00:23:25;6.40;;;5.72;;
43345;SDS011;28937;51.160;4.146;2023-03-01T00:25:51;10.85;;;6.40;;
43345;SDS011;28937;51.160;4.146;2023-03-01T00:28:17;6.78;;;5.60;;
43345;SDS011;28937;51.160;4.146;2023-03-01T00:30:43;8.55;;;6.22;;
43345;SDS011;28937;51.160;4.146;2023-03-01T00:33:09;9.20;;;7.00;;
43345;SDS011;28937;51.160;4.146;2023-03-01T00:35:38;10.35;;;6.40;;
43345;SDS011;28937;51.160;4.146;2023-03-01T00:38:04;7.60;;;6.45;;
43345;SDS011;28937;51.160;4.146;2023-03-01T00:40:31;6.82;;;6.03;;
43345;SDS011;28937;51.160;4.146;2023-03-01T00:42:58;10.07;;;6.00;;
43345;SDS011;28937;51.160;4.146;2023-03-01T00:45:24;9.43;;;6.32;;
43345;SDS011;28937;51.160;4.146;2023-03-01T00:47:50;7.35;;;6.15;;
43345;SDS011;28937;51.160;4.146;2023-03-01T00:50:16;7.13;;;6.43;;
43345;SDS011;28937;51.160;4.146;2023-03-01T00:52:42;9.93;;;6.88;;
43345;SDS011;28937;51.160;4.146;2023-03-01T00:55:08;8.13;;;6.40;;
43345;SDS011;28937;51.160;4.146;2023-03-01T00:57:35;7.18;;;6.15;;
43345;SDS011;28937;51.160;4.146;2023-03-01T01:00:00;9.57;;;6.47;;
43345;SDS011;28937;51.160;4.146;2023-03-01T01:02:26;6.35;;;5.75;;
43345;SDS011;28937;51.160;4.146;2023-03-01T01:04:52;7.53;;;6.18;;
43345;SDS011;28937;51.160;4.146;2023-03-01T01:07:17;9.40;;;7.28;;
43345;SDS011;28937;51.160;4.146;2023-03-01T01:09:45;7.57;;;6.53;;
43345;SDS011;28937;51.160;4.146;2023-03-01T01:12:11;8.98;;;6.40;;
43345;SDS011;28937;51.160;4.146;2023-03-01T01:14:36;8.80;;;6.40;;
43345;SDS011;28937;51.160;4.146;2023-03-01T01:17:02;8.88;;;6.57;;
43345;SDS011;28937;51.160;4.146;2023-03-01T01:19:28;9.07;;;6.72;;
43345;SDS011;28937;51.160;4.146;2023-03-01T01:21:53;7.93;;;6.47;;
43345;SDS011;28937;51.160;4.146;2023-03-01T01:24:19;7.43;;;6.63;;
43345;SDS011;28937;51.160;4.146;2023-03-01T01:26:45;7.25;;;5.95;;
43345;SDS011;28937;51.160;4.146;2023-03-01T01:29:11;9.10;;;5.95;;
43345;SDS011;28937;51.160;4.146;2023-03-01T01:31:37;7.05;;;6.18;;
43345;SDS011;28937;51.160;4.146;2023-03-01T01:34:05;8.13;;;6.47;;
43345;SDS011;28937;51.160;4.146;2023-03-01T01:36:32;8.60;;;6.88;;
43345;SDS011;28937;51.160;4.146;2023-03-01T01:38:58;11.68;;;6.30;;
43345;SDS011;28937;51.160;4.146;2023-03-01T01:41:25;8.10;;;6.40;;
43345;SDS011;28937;51.160;4.146;2023-03-01T01:44:12;8.18;;;6.32;;
43345;SDS011;28937;51.160;4.146;2023-03-01T01:46:47;9.57;;;6.80;;
43345;SDS011;28937;51.160;4.146;2023-03-01T01:52:23;11.95;;;6.32;;
43345;SDS011;28937;51.160;4.146;2023-03-01T01:54:51;8.70;;;6.90;;
43345;SDS011;28937;51.160;4.146;2023-03-01T01:57:24;7.80;;;6.47;;
43345;SDS011;28937;51.160;4.146;2023-03-01T02:02:32;7.93;;;6.03;;
43345;SDS011;28937;51.160;4.146;2023-03-01T02:05:01;7.28;;;6.53;;
43345;SDS011;28937;51.160;4.146;2023-03-01T02:07:35;8.93;;;7.18;;
43345;SDS011;28937;51.160;4.146;2023-03-01T02:10:04;9.52;;;6.10;;
43345;SDS011;28937;51.160;4.146;2023-03-01T02:12:30;9.80;;;6.38;;
43345;SDS011;28937;51.160;4.146;2023-03-01T02:14:57;8.15;;;6.32;;
43345;SDS011;28937;51.160;4.146;2023-03-01T02:17:22;9.23;;;6.88;;
43345;SDS011;28937;51.160;4.146;2023-03-01T02:22:38;7.55;;;6.60;;
43345;SDS011;28937;51.160;4.146;2023-03-01T02:30:28;9.75;;;6.32;;
43345;SDS011;28937;51.160;4.146;2023-03-01T02:32:56;8.18;;;6.10;;
43345;SDS011;28937;51.160;4.146;2023-03-01T02:35:27;10.93;;;6.90;;
43345;SDS011;28937;51.160;4.146;2023-03-01T02:37:57;7.75;;;6.95;;
43345;SDS011;28937;51.160;4.146;2023-03-01T02:40:25;9.68;;;6.70;;
43345;SDS011;28937;51.160;4.146;2023-03-01T02:42:54;8.57;;;7.03;;
43345;SDS011;28937;51.160;4.146;2023-03-01T02:45:22;7.35;;;6.20;;
43345;SDS011;28937;51.160;4.146;2023-03-01T02:47:48;11.15;;;7.07;;
43345;SDS011;28937;51.160;4.146;2023-03-01T02:50:18;9.63;;;6.57;;
43345;SDS011;28937;51.160;4.146;2023-03-01T02:55:41;7.95;;;6.63;;
43345;SDS011;28937;51.160;4.146;2023-03-01T02:58:07;7.95;;;6.82;;
43345;SDS011;28937;51.160;4.146;2023-03-01T03:00:37;11.20;;;7.20;;
43345;SDS011;28937;51.160;4.146;2023-03-01T03:03:12;8.00;;;7.05;;
43345;SDS011;28937;51.160;4.146;2023-03-01T03:05:40;9.75;;;7.45;;
43345;SDS011;28937;51.160;4.146;2023-03-01T03:08:05;7.55;;;6.80;;
43345;SDS011;28937;51.160;4.146;2023-03-01T03:10:33;8.38;;;7.47;;
43345;SDS011;28937;51.160;4.146;2023-03-01T03:13:05;11.13;;;7.75;;
43345;SDS011;28937;51.160;4.146;2023-03-01T03:15:33;10.93;;;7.43;;
43345;SDS011;28937;51.160;4.146;2023-03-01T03:18:00;13.25;;;7.63;;
43345;SDS011;28937;51.160;4.146;2023-03-01T03:20:29;9.10;;;7.53;;
43345;SDS011;28937;51.160;4.146;2023-03-01T03:22:56;10.15;;;7.85;;
43345;SDS011;28937;51.160;4.146;2023-03-01T03:25:26;10.70;;;7.50;;
43345;SDS011;28937;51.160;4.146;2023-03-01T03:27:53;8.95;;;7.90;;
43345;SDS011;28937;51.160;4.146;2023-03-01T03:30:21;12.57;;;7.78;;
43345;SDS011;28937;51.160;4.146;2023-03-01T03:32:49;10.27;;;7.72;;
43345;SDS011;28937;51.160;4.146;2023-03-01T03:37:55;10.88;;;8.35;;
43345;SDS011;28937;51.160;4.146;2023-03-01T03:40:27;14.32;;;8.20;;
43345;SDS011;28937;51.160;4.146;2023-03-01T03:42:55;10.98;;;8.48;;
43345;SDS011;28937;51.160;4.146;2023-03-01T03:45:20;9.10;;;8.18;;
43345;SDS011;28937;51.160;4.146;2023-03-01T03:47:46;9.18;;;8.15;;
43345;SDS011;28937;51.160;4.146;2023-03-01T03:50:12;9.63;;;8.45;;
43345;SDS011;28937;51.160;4.146;2023-03-01T03:52:40;10.02;;;8.85;;
43345;SDS011;28937;51.160;4.146;2023-03-01T03:55:06;9.73;;;8.30;;
43345;SDS011;28937;51.160;4.146;2023-03-01T03:57:45;13.38;;;8.93;;
43345;SDS011;28937;51.160;4.146;2023-03-01T04:00:19;11.98;;;9.10;;
43345;SDS011;28937;51.160;4.146;2023-03-01T04:02:48;9.75;;;8.73;;
43345;SDS011;28937;51.160;4.146;2023-03-01T04:05:15;11.35;;;8.68;;
43345;SDS011;28937;51.160;4.146;2023-03-01T04:07:42;9.27;;;7.70;;
43345;SDS011;28937;51.160;4.146;2023-03-01T04:10:10;12.07;;;8.88;;
43345;SDS011;28937;51.160;4.146;2023-03-01T04:12:38;10.82;;;8.70;;
43345;SDS011;28937;51.160;4.146;2023-03-01T04:15:04;11.07;;;8.80;;
43345;SDS011;28937;51.160;4.146;2023-03-01T04:17:45;12.82;;;9.05;;
43345;SDS011;28937;51.160;4.146;2023-03-01T04:20:15;12.68;;;9.00;;
43345;SDS011;28937;51.160;4.146;2023-03-01T04:22:43;11.40;;;8.93;;
43345;SDS011;28937;51.160;4.146;2023-03-01T04:25:12;13.55;;;8.80;;
43345;SDS011;28937;51.160;4.146;2023-03-01T04:27:39;11.40;;;9.02;;
43345;SDS011;28937;51.160;4.146;2023-03-01T04:30:05;11.48;;;8.60;;
43345;SDS011;28937;51.160;4.146;2023-03-01T04:32:32;13.38;;;8.88;;
43345;SDS011;28937;51.160;4.146;2023-03-01T04:34:57;9.55;;;8.55;;
43345;SDS011;28937;51.160;4.146;2023-03-01T04:37:23;11.10;;;8.75;;
43345;SDS011;28937;51.160;4.146;2023-03-01T04:39:50;9.35;;;8.30;;
43345;SDS011;28937;51.160;4.146;2023-03-01T04:42:15;10.52;;;8.43;;
43345;SDS011;28937;51.160;4.146;2023-03-01T04:44:44;9.82;;;8.82;;
43345;SDS011;28937;51.160;4.146;2023-03-01T04:47:10;10.43;;;8.73;;
43345;SDS011;28937;51.160;4.146;2023-03-01T04:49:36;10.02;;;8.45;;
43345;SDS011;28937;51.160;4.146;2023-03-01T04:52:01;11.88;;;8.15;;
43345;SDS011;28937;51.160;4.146;2023-03-01T04:54:28;11.80;;;9.15;;
43345;SDS011;28937;51.160;4.146;2023-03-01T04:56:54;10.38;;;8.57;;
43345;SDS011;28937;51.160;4.146;2023-03-01T04:59:20;11.77;;;8.85;;
43345;SDS011;28937;51.160;4.146;2023-03-01T05:01:49;11.70;;;9.10;;
43345;SDS011;28937;51.160;4.146;2023-03-01T05:04:15;9.93;;;8.27;;
43345;SDS011;28937;51.160;4.146;2023-03-01T05:06:41;13.02;;;9.00;;
43345;SDS011;28937;51.160;4.146;2023-03-01T05:09:06;11.75;;;8.13;;
43345;SDS011;28937;51.160;4.146;2023-03-01T05:11:32;10.10;;;8.65;;
43345;SDS011;28937;51.160;4.146;2023-03-01T05:14:01;11.85;;;8.25;;
43345;SDS011;28937;51.160;4.146;2023-03-01T05:16:28;11.82;;;8.38;;
43345;SDS011;28937;51.160;4.146;2023-03-01T05:18:55;12.50;;;8.63;;
43345;SDS011;28937;51.160;4.146;2023-03-01T05:21:21;10.35;;;8.00;;
43345;SDS011;28937;51.160;4.146;2023-03-01T05:23:47;13.05;;;8.73;;
43345;SDS011;28937;51.160;4.146;2023-03-01T05:26:14;10.63;;;8.18;;
43345;SDS011;28937;51.160;4.146;2023-03-01T05:28:40;11.50;;;7.88;;
43345;SDS011;28937;51.160;4.146;2023-03-01T05:31:06;9.20;;;7.95;;
43345;SDS011;28937;51.160;4.146;2023-03-01T05:33:37;35.92;;;9.80;;
43345;SDS011;28937;51.160;4.146;2023-03-01T05:36:05;7.80;;;6.45;;
43345;SDS011;28937;51.160;4.146;2023-03-01T05:38:32;11.38;;;6.90;;
43345;SDS011;28937;51.160;4.146;2023-03-01T05:40:59;9.00;;;7.15;;
43345;SDS011;28937;51.160;4.146;2023-03-01T05:43:25;7.57;;;6.78;;
43345;SDS011;28937;51.160;4.146;2023-03-01T05:45:50;10.30;;;7.07;;
43345;SDS011;28937;51.160;4.146;2023-03-01T05:48:16;7.40;;;6.13;;
43345;SDS011;28937;51.160;4.146;2023-03-01T05:50:44;8.55;;;5.95;;
43345;SDS011;28937;51.160;4.146;2023-03-01T05:53:15;8.32;;;6.05;;
43345;SDS011;28937;51.160;4.146;2023-03-01T05:55:43;7.57;;;6.38;;
43345;SDS011;28937;51.160;4.146;2023-03-01T05:58:12;9.73;;;6.28;;
43345;SDS011;28937;51.160;4.146;2023-03-01T06:00:39;9.63;;;5.55;;
43345;SDS011;28937;51.160;4.146;2023-03-01T06:03:05;7.45;;;6.65;;
43345;SDS011;28937;51.160;4.146;2023-03-01T06:05:31;9.00;;;6.40;;
43345;SDS011;28937;51.160;4.146;2023-03-01T06:08:00;10.00;;;7.05;;
43345;SDS011;28937;51.160;4.146;2023-03-01T06:10:26;10.23;;;7.18;;
43345;SDS011;28937;51.160;4.146;2023-03-01T06:12:52;11.30;;;7.82;;
43345;SDS011;28937;51.160;4.146;2023-03-01T06:15:18;10.75;;;7.70;;
43345;SDS011;28937;51.160;4.146;2023-03-01T06:17:45;10.13;;;8.13;;
43345;SDS011;28937;51.160;4.146;2023-03-01T06:20:15;11.88;;;6.75;;
43345;SDS011;28937;51.160;4.146;2023-03-01T06:22:45;9.55;;;7.40;;
43345;SDS011;28937;51.160;4.146;2023-03-01T06:25:12;9.07;;;7.18;;
43345;SDS011;28937;51.160;4.146;2023-03-01T06:27:40;10.85;;;7.75;;
43345;SDS011;28937;51.160;4.146;2023-03-01T06:30:07;11.35;;;7.30;;
43345;SDS011;28937;51.160;4.146;2023-03-01T06:32:35;8.98;;;7.55;;
43345;SDS011;28937;51.160;4.146;2023-03-01T06:35:02;12.70;;;7.47;;
43345;SDS011;28937;51.160;4.146;2023-03-01T06:37:28;8.85;;;7.55;;
43345;SDS011;28937;51.160;4.146;2023-03-01T06:39:54;9.30;;;7.10;;
43345;SDS011;28937;51.160;4.146;2023-03-01T06:42:19;11.02;;;7.63;;
43345;SDS011;28937;51.160;4.146;2023-03-01T06:44:45;10.43;;;8.15;;
43345;SDS011;28937;51.160;4.146;2023-03-01T06:47:11;9.45;;;7.88;;
43345;SDS011;28937;51.160;4.146;2023-03-01T06:49:36;12.25;;;7.45;;
43345;SDS011;28937;51.160;4.146;2023-03-01T06:52:02;10.40;;;7.32;;
43345;SDS011;28937;51.160;4.146;2023-03-01T06:54:28;12.88;;;8.02;;
43345;SDS011;28937;51.160;4.146;2023-03-01T06:56:53;14.50;;;8.40;;
43345;SDS011;28937;51.160;4.146;2023-03-01T06:59:19;10.70;;;7.63;;
43345;SDS011;28937;51.160;4.146;2023-03-01T07:01:45;12.45;;;8.13;;
43345;SDS011;28937;51.160;4.146;2023-03-01T07:04:11;11.68;;;7.93;;
43345;SDS011;28937;51.160;4.146;2023-03-01T07:06:38;10.73;;;7.20;;
43345;SDS011;28937;51.160;4.146;2023-03-01T07:09:03;15.82;;;11.15;;
43345;SDS011;28937;51.160;4.146;2023-03-01T07:11:29;11.60;;;9.93;;
43345;SDS011;28937;51.160;4.146;2023-03-01T07:13:54;13.07;;;9.57;;
43345;SDS011;28937;51.160;4.146;2023-03-01T07:16:21;11.18;;;8.07;;
43345;SDS011;28937;51.160;4.146;2023-03-01T07:18:46;10.55;;;7.30;;
43345;SDS011;28937;51.160;4.146;2023-03-01T07:21:13;9.25;;;7.32;;
43345;SDS011;28937;51.160;4.146;2023-03-01T07:23:39;11.60;;;7.43;;
43345;SDS011;28937;51.160;4.146;2023-03-01T07:26:06;14.02;;;8.27;;
43345;SDS011;28937;51.160;4.146;2023-03-01T07:28:31;12.20;;;7.60;;
43345;SDS011;28937;51.160;4.146;2023-03-01T07:31:03;12.55;;;8.77;;
43345;SDS011;28937;51.160;4.146;2023-03-01T07:33:30;13.27;;;7.05;;
43345;SDS011;28937;51.160;4.146;2023-03-01T07:35:59;10.25;;;7.82;;
43345;SDS011;28937;51.160;4.146;2023-03-01T07:38:27;12.38;;;7.60;;
43345;SDS011;28937;51.160;4.146;2023-03-01T07:40:53;13.05;;;7.22;;
43345;SDS011;28937;51.160;4.146;2023-03-01T07:43:22;10.52;;;7.40;;
43345;SDS011;28937;51.160;4.146;2023-03-01T07:45:48;15.48;;;6.72;;
43345;SDS011;28937;51.160;4.146;2023-03-01T07:48:13;9.32;;;7.25;;
43345;SDS011;28937;51.160;4.146;2023-03-01T07:50:39;13.80;;;8.15;;
43345;SDS011;28937;51.160;4.146;2023-03-01T07:53:04;11.00;;;7.70;;
43345;SDS011;28937;51.160;4.146;2023-03-01T07:55:30;9.40;;;7.47;;
43345;SDS011;28937;51.160;4.146;2023-03-01T07:57:55;10.23;;;7.32;;
43345;SDS011;28937;51.160;4.146;2023-03-01T08:00:21;10.20;;;7.55;;
43345;SDS011;28937;51.160;4.146;2023-03-01T08:02:47;9.73;;;7.70;;
43345;SDS011;28937;51.160;4.146;2023-03-01T08:05:12;10.25;;;7.13;;
43345;SDS011;28937;51.160;4.146;2023-03-01T08:07:38;12.30;;;6.82;;
43345;SDS011;28937;51.160;4.146;2023-03-01T08:10:04;9.45;;;8.27;;
43345;SDS011;28937;51.160;4.146;2023-03-01T08:12:29;10.07;;;7.45;;
43345;SDS011;28937;51.160;4.146;2023-03-01T08:14:55;12.85;;;6.68;;
43345;SDS011;28937;51.160;4.146;2023-03-01T08:17:21;13.27;;;8.57;;
43345;SDS011;28937;51.160;4.146;2023-03-01T08:19:47;8.20;;;7.32;;
43345;SDS011;28937;51.160;4.146;2023-03-01T08:22:13;10.15;;;7.50;;
43345;SDS011;28937;51.160;4.146;2023-03-01T08:24:38;11.50;;;7.75;;
43345;SDS011;28937;51.160;4.146;2023-03-01T08:27:04;9.27;;;6.95;;
43345;SDS011;28937;51.160;4.146;2023-03-01T08:29:31;9.32;;;7.03;;
43345;SDS011;28937;51.160;4.146;2023-03-01T08:31:56;12.15;;;7.35;;
43345;SDS011;28937;51.160;4.146;2023-03-01T08:34:22;9.93;;;6.18;;
43345;SDS011;28937;51.160;4.146;2023-03-01T08:36:48;8.13;;;6.88;;
43345;SDS011;28937;51.160;4.146;2023-03-01T08:39:15;10.30;;;6.85;;
43345;SDS011;28937;51.160;4.146;2023-03-01T08:41:43;8.75;;;6.78;;
43345;SDS011;28937;51.160;4.146;2023-03-01T08:44:09;9.40;;;7.38;;
43345;SDS011;28937;51.160;4.146;2023-03-01T08:46:37;8.73;;;6.90;;
43345;SDS011;28937;51.160;4.146;2023-03-01T08:49:09;9.93;;;7.95;;
43345;SDS011;28937;51.160;4.146;2023-03-01T08:51:37;9.13;;;7.05;;
43345;SDS011;28937;51.160;4.146;2023-03-01T08:54:06;8.80;;;6.70;;
43345;SDS011;28937;51.160;4.146;2023-03-01T08:56:35;10.15;;;7.25;;
43345;SDS011;28937;51.160;4.146;2023-03-01T08:59:00;9.15;;;7.13;;
43345;SDS011;28937;51.160;4.146;2023-03-01T09:01:26;11.23;;;7.22;;
43345;SDS011;28937;51.160;4.146;2023-03-01T09:03:51;10.02;;;6.70;;
43345;SDS011;28937;51.160;4.146;2023-03-01T09:06:17;10.80;;;7.68;;
43345;SDS011;28937;51.160;4.146;2023-03-01T09:08:43;10.98;;;7.75;;
43345;SDS011;28937;51.160;4.146;2023-03-01T09:11:12;11.23;;;7.18;;
43345;SDS011;28937;51.160;4.146;2023-03-01T09:13:41;10.95;;;7.43;;
43345;SDS011;28937;51.160;4.146;2023-03-01T09:16:08;11.85;;;7.45;;
43345;SDS011;28937;51.160;4.146;2023-03-01T09:18:34;9.75;;;7.68;;
43345;SDS011;28937;51.160;4.146;2023-03-01T09:21:01;8.40;;;7.25;;
43345;SDS011;28937;51.160;4.146;2023-03-01T09:23:46;11.20;;;7.40;;
43345;SDS011;28937;51.160;4.146;2023-03-01T09:26:14;8.82;;;7.18;;
43345;SDS011;28937;51.160;4.146;2023-03-01T09:28:43;11.82;;;6.93;;
43345;SDS011;28937;51.160;4.146;2023-03-01T09:31:10;10.65;;;7.57;;
43345;SDS011;28937;51.160;4.146;2023-03-01T09:33:37;10.57;;;7.60;;
43345;SDS011;28937;51.160;4.146;2023-03-01T09:36:05;9.63;;;6.85;;
43345;SDS011;28937;51.160;4.146;2023-03-01T09:38:32;11.13;;;7.80;;
43345;SDS011;28937;51.160;4.146;2023-03-01T09:40:59;8.80;;;6.32;;
43345;SDS011;28937;51.160;4.146;2023-03-01T09:43:40;8.10;;;7.30;;
43345;SDS011;28937;51.160;4.146;2023-03-01T09:46:19;8.65;;;6.78;;
43345;SDS011;28937;51.160;4.146;2023-03-01T09:48:49;10.85;;;7.65;;
43345;SDS011;28937;51.160;4.146;2023-03-01T09:51:29;7.82;;;6.95;;
43345;SDS011;28937;51.160;4.146;2023-03-01T09:53:57;11.52;;;6.97;;
43345;SDS011;28937;51.160;4.146;2023-03-01T10:05:20;10.93;;;7.88;;
43345;SDS011;28937;51.160;4.146;2023-03-01T10:08:14;9.45;;;7.28;;
43345;SDS011;28937;51.160;4.146;2023-03-01T10:10:50;9.07;;;7.75;;
43345;SDS011;28937;51.160;4.146;2023-03-01T10:18:56;8.40;;;6.28;;
43345;SDS011;28937;51.160;4.146;2023-03-01T10:21:25;8.73;;;6.63;;
43345;SDS011;28937;51.160;4.146;2023-03-01T10:23:52;8.63;;;6.93;;
43345;SDS011;28937;51.160;4.146;2023-03-01T10:29:09;8.95;;;7.72;;
43345;SDS011;28937;51.160;4.146;2023-03-01T10:34:22;8.73;;;6.63;;
43345;SDS011;28937;51.160;4.146;2023-03-01T10:36:56;11.40;;;7.15;;
43345;SDS011;28937;51.160;4.146;2023-03-01T10:39:34;10.88;;;6.55;;
43345;SDS011;28937;51.160;4.146;2023-03-01T10:42:01;9.75;;;7.00;;
43345;SDS011;28937;51.160;4.146;2023-03-01T10:44:44;8.43;;;6.75;;
43345;SDS011;28937;51.160;4.146;2023-03-01T10:47:13;10.85;;;6.63;;
43345;SDS011;28937;51.160;4.146;2023-03-01T10:50:04;8.88;;;7.47;;
43345;SDS011;28937;51.160;4.146;2023-03-01T10:52:40;12.15;;;7.07;;
43345;SDS011;28937;51.160;4.146;2023-03-01T10:57:40;8.88;;;7.50;;
43345;SDS011;28937;51.160;4.146;2023-03-01T11:02:47;11.18;;;7.53;;
43345;SDS011;28937;51.160;4.146;2023-03-01T11:07:46;8.23;;;7.38;;
43345;SDS011;28937;51.160;4.146;2023-03-01T11:10:27;8.23;;;5.97;;
43345;SDS011;28937;51.160;4.146;2023-03-01T11:13:18;9.88;;;6.68;;
43345;SDS011;28937;51.160;4.146;2023-03-01T11:15:58;8.82;;;6.35;;
43345;SDS011;28937;51.160;4.146;2023-03-01T11:18:25;7.68;;;6.75;;
43345;SDS011;28937;51.160;4.146;2023-03-01T11:20:52;8.48;;;6.82;;
43345;SDS011;28937;51.160;4.146;2023-03-01T11:23:20;7.85;;;6.38;;
43345;SDS011;28937;51.160;4.146;2023-03-01T11:25:56;9.18;;;6.55;;
43345;SDS011;28937;51.160;4.146;2023-03-01T11:28:28;10.93;;;7.10;;
43345;SDS011;28937;51.160;4.146;2023-03-01T11:31:05;7.43;;;6.18;;
43345;SDS011;28937;51.160;4.146;2023-03-01T11:33:49;7.88;;;6.68;;
43345;SDS011;28937;51.160;4.146;2023-03-01T11:36:39;8.57;;;6.60;;
43345;SDS011;28937;51.160;4.146;2023-03-01T11:42:17;8.98;;;7.03;;
43345;SDS011;28937;51.160;4.146;2023-03-01T11:44:49;11.00;;;8.55;;
43345;SDS011;28937;51.160;4.146;2023-03-01T11:50:12;7.97;;;6.55;;
43345;SDS011;28937;51.160;4.146;2023-03-01T11:55:45;7.68;;;6.38;;
43345;SDS011;28937;51.160;4.146;2023-03-01T12:17:18;11.15;;;6.07;;
43345;SDS011;28937;51.160;4.146;2023-03-01T12:25:55;8.07;;;6.43;;
43345;SDS011;28937;51.160;4.146;2023-03-01T12:28:50;9.20;;;5.65;;
43345;SDS011;28937;51.160;4.146;2023-03-01T12:36:28;8.60;;;5.55;;
43345;SDS011;28937;51.160;4.146;2023-03-01T12:42:04;6.20;;;5.28;;
43345;SDS011;28937;51.160;4.146;2023-03-01T12:50:18;8.00;;;5.25;;
43345;SDS011;28937;51.160;4.146;2023-03-01T12:52:55;7.85;;;5.43;;
43345;SDS011;28937;51.160;4.146;2023-03-01T12:55:38;8.88;;;5.00;;
43345;SDS011;28937;51.160;4.146;2023-03-01T12:58:21;5.60;;;4.95;;
43345;SDS011;28937;51.160;4.146;2023-03-01T13:12:42;5.43;;;4.85;;
43345;SDS011;28937;51.160;4.146;2023-03-01T13:20:44;6.50;;;4.38;;
43345;SDS011;28937;51.160;4.146;2023-03-01T13:28:38;6.18;;;5.10;;
43345;SDS011;28937;51.160;4.146;2023-03-01T13:31:07;7.50;;;4.85;;
43345;SDS011;28937;51.160;4.146;2023-03-01T13:33:47;6.53;;;4.88;;
43345;SDS011;28937;51.160;4.146;2023-03-01T13:42:02;7.15;;;5.15;;
43345;SDS011;28937;51.160;4.146;2023-03-01T13:44:12;7.82;;;4.95;;
43345;SDS011;28937;51.160;4.146;2023-03-01T13:46:46;7.10;;;5.03;;
43345;SDS011;28937;51.160;4.146;2023-03-01T13:49:14;15.60;;;5.45;;
43345;SDS011;28937;51.160;4.146;2023-03-01T13:51:46;7.10;;;4.32;;
43345;SDS011;28937;51.160;4.146;2023-03-01T13:54:12;7.78;;;4.95;;
43345;SDS011;28937;51.160;4.146;2023-03-01T13:56:41;5.68;;;4.38;;
43345;SDS011;28937;51.160;4.146;2023-03-01T13:59:15;7.47;;;5.03;;
43345;SDS011;28937;51.160;4.146;2023-03-01T14:01:43;7.30;;;5.07;;
43345;SDS011;28937;51.160;4.146;2023-03-01T14:04:21;6.35;;;4.80;;
43345;SDS011;28937;51.160;4.146;2023-03-01T14:14:54;6.90;;;5.18;;
43345;SDS011;28937;51.160;4.146;2023-03-01T14:17:49;6.85;;;4.47;;
43345;SDS011;28937;51.160;4.146;2023-03-01T14:22:54;8.18;;;5.10;;
43345;SDS011;28937;51.160;4.146;2023-03-01T14:25:45;6.00;;;5.13;;
43345;SDS011;28937;51.160;4.146;2023-03-01T14:28:16;8.10;;;4.97;;
43345;SDS011;28937;51.160;4.146;2023-03-01T14:30:54;6.90;;;4.70;;
43345;SDS011;28937;51.160;4.146;2023-03-01T14:33:23;5.80;;;4.82;;
43345;SDS011;28937;51.160;4.146;2023-03-01T14:36:07;6.78;;;5.85;;
43345;SDS011;28937;51.160;4.146;2023-03-01T14:38:41;7.07;;;5.72;;
43345;SDS011;28937;51.160;4.146;2023-03-01T14:41:18;6.65;;;5.68;;
43345;SDS011;28937;51.160;4.146;2023-03-01T14:43:53;5.90;;;5.05;;
43345;SDS011;28937;51.160;4.146;2023-03-01T14:46:24;9.38;;;5.18;;
43345;SDS011;28937;51.160;4.146;2023-03-01T14:48:56;9.07;;;6.13;;
43345;SDS011;28937;51.160;4.146;2023-03-01T14:51:55;8.48;;;5.38;;
43345;SDS011;28937;51.160;4.146;2023-03-01T14:54:46;8.50;;;5.50;;
43345;SDS011;28937;51.160;4.146;2023-03-01T14:57:15;7.03;;;5.47;;
43345;SDS011;28937;51.160;4.146;2023-03-01T14:59:42;6.97;;;5.35;;
43345;SDS011;28937;51.160;4.146;2023-03-01T15:02:11;8.20;;;5.75;;
43345;SDS011;28937;51.160;4.146;2023-03-01T15:04:49;9.90;;;5.53;;
43345;SDS011;28937;51.160;4.146;2023-03-01T15:09:42;7.05;;;5.85;;
43345;SDS011;28937;51.160;4.146;2023-03-01T15:14:52;7.18;;;5.25;;
43345;SDS011;28937;51.160;4.146;2023-03-01T15:17:37;8.82;;;6.35;;
43345;SDS011;28937;51.160;4.146;2023-03-01T15:20:05;8.70;;;6.47;;
43345;SDS011;28937;51.160;4.146;2023-03-01T15:22:43;7.50;;;5.40;;
43345;SDS011;28937;51.160;4.146;2023-03-01T15:25:20;9.27;;;6.38;;
43345;SDS011;28937;51.160;4.146;2023-03-01T15:27:48;8.52;;;5.40;;
43345;SDS011;28937;51.160;4.146;2023-03-01T15:36:00;5.95;;;5.32;;
43345;SDS011;28937;51.160;4.146;2023-03-01T15:38:53;9.05;;;7.03;;
43345;SDS011;28937;51.160;4.146;2023-03-01T15:41:23;9.25;;;6.28;;
43345;SDS011;28937;51.160;4.146;2023-03-01T15:44:15;7.05;;;6.07;;
43345;SDS011;28937;51.160;4.146;2023-03-01T15:46:45;8.00;;;5.82;;
43345;SDS011;28937;51.160;4.146;2023-03-01T15:49:25;7.57;;;6.78;;
43345;SDS011;28937;51.160;4.146;2023-03-01T15:51:55;9.40;;;6.20;;
43345;SDS011;28937;51.160;4.146;2023-03-01T15:54:22;6.95;;;6.20;;
43345;SDS011;28937;51.160;4.146;2023-03-01T15:56:50;9.00;;;6.15;;
43345;SDS011;28937;51.160;4.146;2023-03-01T15:59:16;7.60;;;6.60;;
43345;SDS011;28937;51.160;4.146;2023-03-01T16:01:42;8.80;;;6.05;;
43345;SDS011;28937;51.160;4.146;2023-03-01T16:04:12;7.95;;;6.38;;
43345;SDS011;28937;51.160;4.146;2023-03-01T16:06:45;8.52;;;6.20;;
43345;SDS011;28937;51.160;4.146;2023-03-01T16:09:23;8.05;;;6.22;;
43345;SDS011;28937;51.160;4.146;2023-03-01T16:11:50;6.93;;;6.22;;
43345;SDS011;28937;51.160;4.146;2023-03-01T16:14:17;8.70;;;7.15;;
43345;SDS011;28937;51.160;4.146;2023-03-01T16:16:43;8.10;;;6.43;;
43345;SDS011;28937;51.160;4.146;2023-03-01T16:19:09;8.20;;;6.32;;
43345;SDS011;28937;51.160;4.146;2023-03-01T16:21:36;11.43;;;6.63;;
43345;SDS011;28937;51.160;4.146;2023-03-01T16:24:02;8.52;;;7.00;;
43345;SDS011;28937;51.160;4.146;2023-03-01T16:26:28;10.27;;;6.45;;
43345;SDS011;28937;51.160;4.146;2023-03-01T16:28:54;9.63;;;6.43;;
43345;SDS011;28937;51.160;4.146;2023-03-01T16:31:21;8.77;;;5.93;;
43345;SDS011;28937;51.160;4.146;2023-03-01T16:33:48;9.50;;;6.35;;
43345;SDS011;28937;51.160;4.146;2023-03-01T16:36:18;10.13;;;6.50;;
43345;SDS011;28937;51.160;4.146;2023-03-01T16:38:44;9.20;;;6.75;;
43345;SDS011;28937;51.160;4.146;2023-03-01T16:41:14;8.35;;;6.93;;
43345;SDS011;28937;51.160;4.146;2023-03-01T16:43:42;10.02;;;6.60;;
43345;SDS011;28937;51.160;4.146;2023-03-01T16:46:11;8.98;;;6.65;;
43345;SDS011;28937;51.160;4.146;2023-03-01T16:48:45;8.50;;;6.57;;
43345;SDS011;28937;51.160;4.146;2023-03-01T16:51:11;8.85;;;6.82;;
43345;SDS011;28937;51.160;4.146;2023-03-01T16:53:37;9.65;;;6.88;;
43345;SDS011;28937;51.160;4.146;2023-03-01T16:56:04;9.38;;;6.13;;
43345;SDS011;28937;51.160;4.146;2023-03-01T16:58:32;9.25;;;6.82;;
43345;SDS011;28937;51.160;4.146;2023-03-01T17:01:03;11.88;;;7.35;;
43345;SDS011;28937;51.160;4.146;2023-03-01T17:03:30;8.00;;;6.70;;
43345;SDS011;28937;51.160;4.146;2023-03-01T17:05:56;12.43;;;7.40;;
43345;SDS011;28937;51.160;4.146;2023-03-01T17:08:21;10.13;;;6.95;;
43345;SDS011;28937;51.160;4.146;2023-03-01T17:10:47;8.75;;;6.57;;
43345;SDS011;28937;51.160;4.146;2023-03-01T17:13:13;9.93;;;7.03;;
43345;SDS011;28937;51.160;4.146;2023-03-01T17:15:39;8.73;;;6.22;;
43345;SDS011;28937;51.160;4.146;2023-03-01T17:18:06;15.50;;;6.18;;
43345;SDS011;28937;51.160;4.146;2023-03-01T17:20:33;7.53;;;6.38;;
43345;SDS011;28937;51.160;4.146;2023-03-01T17:22:58;12.68;;;6.72;;